DAAP

Illizi Takhamalt Airport

Illizi, Algeria
METAR DAAP 092200Z 07005KT CAVOK 11/02 Q1026
Observed Flight Rules
Dec-9 @ 22:00 UTC (14 minutes ago) Visual Flight Rules
Wind Visibility Clouds
70° at 5 knots 10,000+ meters
  • Clear skies
Temperatures Readings
Current 11°C / 52°F
Dewpoint 2°C / 36°F
Humidity 54%
Altimeter 30.3" Hg
Pressure 1026 hPa
Elevation 558
METAR DAAP 092200Z 07005KT CAVOK 11/02 Q1026
Observed Flight Rules
Dec-9 @ 22:00 UTC
(14 minutes ago)
VFR
Wind Visibility
70° at 5 knots 10,000+ meters
Clouds
  • Clear skies
Temperature Dewpoint
11°C / 52°F 2°C / 36°F
Humidity Altimeter Pressure
54% 30.3" Hg 1026 hPa